createdAt,value
2018-12-10T00:02:08.949Z,6.10
2018-12-10T00:04:39.281Z,6.10
2018-12-10T00:07:07.632Z,6.00
2018-12-10T00:09:44.545Z,5.90
2018-12-10T00:12:13.011Z,5.90
2018-12-10T00:14:43.819Z,5.90
2018-12-10T00:17:15.163Z,5.80
2018-12-10T00:19:59.038Z,5.80
2018-12-10T00:22:30.673Z,5.70
2018-12-10T00:24:59.053Z,5.80
2018-12-10T00:27:27.580Z,5.70
2018-12-10T00:29:56.844Z,5.70
2018-12-10T00:32:26.220Z,5.70
2018-12-10T00:34:57.443Z,5.70
2018-12-10T00:37:26.673Z,5.70
2018-12-10T00:39:55.461Z,5.70
2018-12-10T00:42:25.348Z,5.70
2018-12-10T00:44:54.788Z,5.70
2018-12-10T00:47:24.148Z,5.70
2018-12-10T00:49:53.339Z,5.70
2018-12-10T00:52:25.429Z,5.60
2018-12-10T00:54:55.008Z,5.60
2018-12-10T00:57:26.542Z,5.60
2018-12-10T00:59:55.657Z,5.60
2018-12-10T01:02:24.025Z,5.50
2018-12-10T01:04:53.029Z,5.50
2018-12-10T01:07:22.043Z,5.50
2018-12-10T01:09:50.343Z,5.50
2018-12-10T01:12:18.801Z,5.50
2018-12-10T01:14:48.357Z,5.50
2018-12-10T01:17:18.733Z,5.50
2018-12-10T01:19:47.754Z,5.50
2018-12-10T01:22:16.071Z,5.50
2018-12-10T01:24:44.496Z,5.40
2018-12-10T01:27:13.973Z,5.40
2018-12-10T01:29:43.353Z,5.40
2018-12-10T01:32:11.753Z,5.40
2018-12-10T01:34:43.904Z,5.40
2018-12-10T01:37:13.388Z,5.40
2018-12-10T01:39:45.285Z,5.40
2018-12-10T01:42:14.619Z,5.40
2018-12-10T01:44:47.557Z,5.30
2018-12-10T01:47:15.976Z,5.30
2018-12-10T01:49:46.301Z,5.30
2018-12-10T01:52:18.629Z,5.30
2018-12-10T01:54:49.032Z,5.30
2018-12-10T01:57:17.442Z,5.30
2018-12-10T01:59:48.114Z,5.30
2018-12-10T02:02:19.893Z,5.30
2018-12-10T02:04:48.323Z,5.30
2018-12-10T02:07:19.095Z,5.30
2018-12-10T02:09:47.414Z,5.30
2018-12-10T02:12:15.820Z,5.30
2018-12-10T02:14:47.236Z,5.30
2018-12-10T02:17:15.679Z,5.30
2018-12-10T02:19:45.027Z,5.30
2018-12-10T02:22:24.517Z,5.30
2018-12-10T02:25:00.420Z,5.40
2018-12-10T02:27:30.752Z,5.40
2018-12-10T02:30:00.137Z,5.40
2018-12-10T02:32:28.556Z,5.40
2018-12-10T02:34:57.926Z,5.40
2018-12-10T02:37:26.341Z,5.40
2018-12-10T02:39:54.684Z,5.40
2018-12-10T02:42:25.050Z,5.40
2018-12-10T02:44:59.610Z,5.40
2018-12-10T02:50:19.580Z,5.40
2018-12-10T02:58:29.443Z,5.50
2018-12-10T03:03:58.583Z,5.60
2018-12-10T03:06:33.588Z,5.60
2018-12-10T03:09:05.780Z,5.60
2018-12-10T03:11:34.097Z,5.60
2018-12-10T03:16:54.238Z,5.70
2018-12-10T03:19:24.754Z,5.70
2018-12-10T03:24:53.124Z,5.70
2018-12-10T03:27:28.112Z,5.80
2018-12-10T03:29:56.508Z,5.80
2018-12-10T03:32:24.903Z,5.80
2018-12-10T03:35:01.882Z,5.80
2018-12-10T03:37:33.804Z,5.80
2018-12-10T03:40:03.343Z,5.80
2018-12-10T03:42:37.154Z,5.80
2018-12-10T03:45:06.751Z,5.80
2018-12-10T03:47:44.972Z,5.80
2018-12-10T03:50:35.099Z,5.80
2018-12-10T03:53:15.655Z,5.80
2018-12-10T03:55:59.412Z,5.80
2018-12-10T03:58:37.557Z,5.80
2018-12-10T04:01:05.949Z,5.70
2018-12-10T04:03:34.320Z,5.70
2018-12-10T04:06:02.831Z,5.60
2018-12-10T04:08:31.321Z,5.60
2018-12-10T04:10:59.761Z,5.50
2018-12-10T04:13:28.104Z,5.40
2018-12-10T04:15:56.908Z,5.30
2018-12-10T04:18:25.798Z,5.30
2018-12-10T04:20:55.276Z,5.30
2018-12-10T04:23:23.807Z,5.30
2018-12-10T04:25:52.227Z,5.20
2018-12-10T04:28:20.587Z,5.20
2018-12-10T04:30:49.080Z,5.10
2018-12-10T04:33:17.554Z,5.10
2018-12-10T04:35:45.952Z,5.10
2018-12-10T04:38:14.493Z,5.00
2018-12-10T04:40:43.537Z,5.00
2018-12-10T04:43:11.926Z,5.00
2018-12-10T04:45:40.325Z,4.90
2018-12-10T04:48:08.713Z,4.90
2018-12-10T04:50:38.083Z,4.90
2018-12-10T04:53:06.454Z,4.90
2018-12-10T04:55:34.910Z,4.90
2018-12-10T04:58:03.302Z,4.80
2018-12-10T05:00:31.662Z,4.80
2018-12-10T05:03:06.058Z,4.80
2018-12-10T05:05:34.502Z,4.80
2018-12-10T05:08:05.453Z,4.80
2018-12-10T05:10:34.094Z,4.80
2018-12-10T05:13:02.554Z,4.90
2018-12-10T05:15:32.000Z,4.90
2018-12-10T05:18:00.359Z,4.90
2018-12-10T05:20:28.746Z,4.90
2018-12-10T05:22:57.152Z,4.90
2018-12-10T05:25:25.581Z,4.90
2018-12-10T05:27:54.009Z,4.90
2018-12-10T05:30:22.360Z,4.80
2018-12-10T05:32:50.739Z,4.80
2018-12-10T05:35:19.104Z,4.80
2018-12-10T05:37:47.532Z,4.90
2018-12-10T05:40:15.869Z,4.90
2018-12-10T05:42:44.261Z,4.80
2018-12-10T05:45:12.756Z,4.80
2018-12-10T05:47:41.166Z,4.70
2018-12-10T05:50:09.624Z,4.70
2018-12-10T05:52:37.995Z,4.70
2018-12-10T05:55:06.487Z,4.70
2018-12-10T05:57:34.877Z,4.60
2018-12-10T06:00:03.230Z,4.60
2018-12-10T06:02:31.828Z,4.60
2018-12-10T06:05:01.298Z,4.60
2018-12-10T06:07:29.771Z,4.60
2018-12-10T06:09:58.157Z,4.60
2018-12-10T06:12:26.478Z,4.60
2018-12-10T06:14:54.828Z,4.60
2018-12-10T06:17:23.198Z,4.50
2018-12-10T06:19:51.614Z,4.60
2018-12-10T06:22:20.021Z,4.60
2018-12-10T06:24:48.591Z,4.50
2018-12-10T06:27:16.942Z,4.50
2018-12-10T06:29:45.404Z,4.50
2018-12-10T06:32:13.796Z,4.50
2018-12-10T06:34:43.233Z,4.50
2018-12-10T06:37:11.583Z,4.50
2018-12-10T06:39:39.969Z,4.60
2018-12-10T06:42:08.422Z,4.70
2018-12-10T06:44:37.073Z,4.70
2018-12-10T06:47:06.113Z,4.70
2018-12-10T06:49:34.510Z,4.60
2018-12-10T06:52:03.990Z,4.60
2018-12-10T06:54:32.385Z,4.60
2018-12-10T06:57:02.828Z,4.50
2018-12-10T06:59:48.745Z,4.50
2018-12-10T07:02:18.213Z,4.50
2018-12-10T07:04:55.073Z,4.40
2018-12-10T07:07:27.369Z,4.40
2018-12-10T07:10:16.652Z,4.40
2018-12-10T07:12:44.948Z,4.40
2018-12-10T07:15:13.393Z,4.50
2018-12-10T07:17:51.489Z,4.50
2018-12-10T07:20:28.606Z,4.50
2018-12-10T07:28:45.102Z,4.70
2018-12-10T07:31:16.966Z,4.80
2018-12-10T07:33:45.334Z,4.80
2018-12-10T07:36:16.216Z,4.90
2018-12-10T07:38:54.557Z,4.90
2018-12-10T07:41:24.001Z,4.90
2018-12-10T07:43:52.371Z,5.00
2018-12-10T07:46:20.810Z,5.10
2018-12-10T07:48:49.274Z,5.20
2018-12-10T07:51:17.612Z,5.30
2018-12-10T07:53:45.993Z,5.40
2018-12-10T07:56:14.411Z,5.40
2018-12-10T07:58:42.779Z,5.40
2018-12-10T08:01:12.222Z,5.40
2018-12-10T08:03:40.745Z,5.50
2018-12-10T08:06:10.135Z,5.60
2018-12-10T08:08:38.558Z,5.60
2018-12-10T08:11:06.910Z,5.60
2018-12-10T08:13:35.326Z,5.60
2018-12-10T08:16:04.064Z,5.50
2018-12-10T08:18:32.482Z,5.50
2018-12-10T08:21:02.410Z,5.50
2018-12-10T08:23:31.337Z,5.60
2018-12-10T08:26:00.089Z,5.80
2018-12-10T08:28:28.566Z,5.90
2018-12-10T08:30:57.028Z,6.00
2018-12-10T08:33:27.446Z,6.00
2018-12-10T08:35:55.847Z,5.90
2018-12-10T08:38:24.217Z,5.90
2018-12-10T08:40:53.741Z,5.80
2018-12-10T08:43:23.151Z,5.80
2018-12-10T08:45:53.637Z,5.90
2018-12-10T08:48:21.998Z,6.00
2018-12-10T08:50:51.442Z,6.20
2018-12-10T08:53:19.782Z,6.20
2018-12-10T08:55:48.195Z,6.20
2018-12-10T08:58:16.617Z,6.20
2018-12-10T09:00:45.073Z,6.20
2018-12-10T09:03:13.497Z,6.20
2018-12-10T09:05:43.955Z,6.20
2018-12-10T09:08:12.286Z,6.30
2018-12-10T09:10:41.652Z,6.50
2018-12-10T09:13:10.068Z,6.80
2018-12-10T09:15:38.668Z,7.00
2018-12-10T09:18:07.218Z,7.10
2018-12-10T09:20:35.641Z,7.10
2018-12-10T09:23:04.009Z,6.90
2018-12-10T09:25:33.421Z,6.80
2018-12-10T09:28:06.926Z,6.90
2018-12-10T09:30:37.478Z,7.00
2018-12-10T09:33:05.985Z,7.20
2018-12-10T09:35:36.829Z,7.50
2018-12-10T09:38:05.269Z,7.80
2018-12-10T09:40:33.658Z,7.90
2018-12-10T09:43:08.643Z,7.90
2018-12-10T09:45:38.038Z,7.90
2018-12-10T09:48:06.591Z,7.70
2018-12-10T09:50:38.871Z,7.50
2018-12-10T09:53:07.291Z,7.40
2018-12-10T09:55:40.702Z,7.30
2018-12-10T09:58:10.102Z,7.10
2018-12-10T10:00:38.481Z,6.90
2018-12-10T10:03:06.925Z,6.70
2018-12-10T10:05:36.400Z,6.50
2018-12-10T10:08:06.934Z,6.30
2018-12-10T10:10:36.346Z,6.10
2018-12-10T10:13:04.658Z,5.90
2018-12-10T10:15:33.097Z,5.80
2018-12-10T10:18:01.440Z,5.70
2018-12-10T10:20:30.998Z,5.60
2018-12-10T10:23:00.310Z,5.60
2018-12-10T10:25:29.672Z,5.50
2018-12-10T10:27:59.189Z,5.50
2018-12-10T10:30:27.565Z,5.40
2018-12-10T10:32:56.890Z,5.40
2018-12-10T10:35:25.334Z,5.40
2018-12-10T10:37:53.666Z,5.30
2018-12-10T10:40:22.233Z,5.30
2018-12-10T10:42:50.654Z,5.20
2018-12-10T10:45:19.201Z,5.20
2018-12-10T10:47:47.558Z,5.10
2018-12-10T10:50:16.940Z,5.10
2018-12-10T10:52:46.389Z,5.00
2018-12-10T10:55:15.720Z,5.00
2018-12-10T10:57:44.108Z,5.10
2018-12-10T11:00:18.356Z,5.20
2018-12-10T11:02:59.004Z,5.40
2018-12-10T11:05:27.421Z,5.50
2018-12-10T11:07:56.893Z,5.70
2018-12-10T11:10:26.333Z,6.00
2018-12-10T11:12:54.802Z,6.20
2018-12-10T11:15:25.192Z,6.40
2018-12-10T11:17:53.675Z,6.60
2018-12-10T11:20:23.088Z,6.80
2018-12-10T11:22:52.489Z,6.80
2018-12-10T11:25:20.857Z,6.80
2018-12-10T11:27:50.310Z,6.80
2018-12-10T11:30:18.766Z,6.80
2018-12-10T11:32:47.096Z,6.90
2018-12-10T11:35:15.617Z,7.10
2018-12-10T11:37:44.089Z,7.30
2018-12-10T11:40:12.482Z,7.40
2018-12-10T11:42:43.886Z,7.40
2018-12-10T11:45:12.287Z,7.30
2018-12-10T11:47:40.653Z,7.20
2018-12-10T11:50:09.283Z,7.20
2018-12-10T11:52:37.737Z,7.20
2018-12-10T11:55:07.296Z,7.20
2018-12-10T11:57:35.766Z,7.20
2018-12-10T12:00:04.393Z,7.20
2018-12-10T12:02:32.797Z,7.30
2018-12-10T12:05:01.305Z,7.40
2018-12-10T12:07:29.622Z,7.60
2018-12-10T12:09:58.058Z,7.80
2018-12-10T12:12:26.388Z,7.90
2018-12-10T12:14:54.948Z,7.90
2018-12-10T12:17:23.358Z,7.90
2018-12-10T12:19:52.781Z,7.70
2018-12-10T12:22:21.213Z,7.70
2018-12-10T12:24:49.726Z,7.60
2018-12-10T12:27:18.112Z,7.60
2018-12-10T12:29:46.486Z,7.60
2018-12-10T12:32:15.971Z,7.50
2018-12-10T12:34:44.458Z,7.40
2018-12-10T12:37:13.057Z,7.30
2018-12-10T12:39:41.465Z,7.20
2018-12-10T12:42:09.868Z,7.20
2018-12-10T12:44:38.199Z,7.10
2018-12-10T12:47:07.165Z,7.10
2018-12-10T12:49:36.577Z,7.30
2018-12-10T12:52:05.021Z,7.30
2018-12-10T12:54:34.392Z,7.20
2018-12-10T12:57:02.940Z,7.10
2018-12-10T12:59:31.364Z,7.10
2018-12-10T13:01:59.843Z,7.00
2018-12-10T13:04:32.934Z,7.10
2018-12-10T13:07:01.978Z,7.10
2018-12-10T13:09:30.488Z,7.00
2018-12-10T13:11:58.923Z,7.00
2018-12-10T13:14:27.391Z,7.00
2018-12-10T13:16:55.785Z,7.00
2018-12-10T13:19:24.298Z,7.00
2018-12-10T13:21:52.707Z,7.10
2018-12-10T13:24:21.116Z,7.00
2018-12-10T13:26:49.574Z,7.10
2018-12-10T13:29:18.253Z,7.00
2018-12-10T13:31:46.771Z,6.90
2018-12-10T13:34:15.310Z,6.80
2018-12-10T13:36:43.711Z,6.80
2018-12-10T13:39:12.994Z,6.70
2018-12-10T13:41:41.353Z,6.60
2018-12-10T13:44:09.772Z,6.50
2018-12-10T13:46:38.153Z,6.50
2018-12-10T13:49:06.530Z,6.50
2018-12-10T13:51:35.823Z,6.50
2018-12-10T13:54:04.311Z,6.40
2018-12-10T13:56:32.795Z,6.40
2018-12-10T13:59:01.205Z,6.40
2018-12-10T14:01:29.758Z,6.40
2018-12-10T14:03:58.572Z,6.40
2018-12-10T14:06:27.028Z,6.40
2018-12-10T14:08:55.463Z,6.40
2018-12-10T14:11:24.070Z,6.30
2018-12-10T14:13:52.490Z,6.30
2018-12-10T14:16:21.075Z,6.30
2018-12-10T14:18:49.580Z,6.20
2018-12-10T14:21:18.111Z,6.20
2018-12-10T14:23:46.628Z,6.20
2018-12-10T14:26:15.093Z,6.20
2018-12-10T14:28:43.465Z,6.10
2018-12-10T14:31:12.876Z,6.10
2018-12-10T14:33:41.283Z,6.00
2018-12-10T14:36:09.754Z,6.00
2018-12-10T14:38:39.422Z,6.00
2018-12-10T14:41:07.845Z,5.90
2018-12-10T14:43:36.306Z,5.80
2018-12-10T14:46:04.754Z,5.70
2018-12-10T14:48:33.131Z,5.60
2018-12-10T14:51:01.499Z,5.60
2018-12-10T14:53:29.953Z,5.60
2018-12-10T14:55:58.365Z,5.50
2018-12-10T14:58:26.798Z,5.50
2018-12-10T15:00:55.198Z,5.40
2018-12-10T15:03:23.581Z,5.40
2018-12-10T15:05:52.767Z,5.30
2018-12-10T15:08:21.124Z,5.30
2018-12-10T15:10:49.500Z,5.20
2018-12-10T15:13:17.837Z,5.20
2018-12-10T15:15:46.321Z,5.10
2018-12-10T15:18:14.707Z,5.10
2018-12-10T15:20:43.007Z,5.10
2018-12-10T15:23:11.406Z,5.10
2018-12-10T15:25:39.770Z,5.10
2018-12-10T15:28:08.226Z,5.00
2018-12-10T15:30:36.665Z,5.10
2018-12-10T15:33:05.122Z,5.10
2018-12-10T15:35:33.465Z,5.10
2018-12-10T15:38:01.859Z,5.10
2018-12-10T15:40:30.347Z,5.10
2018-12-10T15:42:58.757Z,5.20
2018-12-10T15:45:27.228Z,5.20
2018-12-10T15:47:55.604Z,5.20
2018-12-10T15:50:24.142Z,5.20
2018-12-10T15:52:52.610Z,5.20
2018-12-10T15:55:21.099Z,5.20
2018-12-10T15:57:49.547Z,5.30
2018-12-10T16:00:18.000Z,5.30
2018-12-10T16:02:46.371Z,5.30
2018-12-10T16:05:14.732Z,5.30
2018-12-10T16:07:43.155Z,5.30
2018-12-10T16:10:11.610Z,5.40
2018-12-10T16:12:40.078Z,5.40
2018-12-10T16:15:08.651Z,5.40
2018-12-10T16:17:37.100Z,5.40
2018-12-10T16:20:07.263Z,5.40
2018-12-10T16:22:35.677Z,5.40
2018-12-10T16:25:04.458Z,5.40
2018-12-10T16:27:33.207Z,5.40
2018-12-10T16:30:01.726Z,5.40
2018-12-10T16:32:30.090Z,5.40
2018-12-10T16:34:58.546Z,5.40
2018-12-10T16:37:27.892Z,5.40
2018-12-10T16:39:56.256Z,5.40
2018-12-10T16:42:24.634Z,5.40
2018-12-10T16:44:53.006Z,5.40
2018-12-10T16:47:21.399Z,5.40
2018-12-10T16:49:49.769Z,5.30
2018-12-10T16:52:18.128Z,5.30
2018-12-10T16:54:46.552Z,5.30
2018-12-10T16:57:15.333Z,5.30
2018-12-10T16:59:43.761Z,5.20
2018-12-10T17:02:12.182Z,5.20
2018-12-10T17:04:40.558Z,5.20
2018-12-10T17:07:09.029Z,5.20
2018-12-10T17:09:37.800Z,5.20
2018-12-10T17:12:06.571Z,5.10
2018-12-10T17:14:35.307Z,4.90
2018-12-10T17:17:04.068Z,4.70
2018-12-10T17:19:32.498Z,4.60
2018-12-10T17:22:01.182Z,4.40
2018-12-10T17:24:29.670Z,4.30
2018-12-10T17:26:58.173Z,4.20
2018-12-10T17:29:26.601Z,4.20
2018-12-10T17:31:54.973Z,4.10
2018-12-10T17:34:23.332Z,4.10
2018-12-10T17:36:51.900Z,4.00
2018-12-10T17:39:20.366Z,4.00
2018-12-10T17:41:48.818Z,4.00
2018-12-10T17:44:17.236Z,3.90
2018-12-10T17:46:45.661Z,3.90
2018-12-10T17:49:14.070Z,3.90
2018-12-10T17:51:42.482Z,3.90
2018-12-10T17:54:11.091Z,3.90
2018-12-10T17:56:39.974Z,3.90
2018-12-10T17:59:08.610Z,4.00
2018-12-10T18:01:37.090Z,3.90
2018-12-10T18:04:05.648Z,3.90
2018-12-10T18:06:34.053Z,3.90
2018-12-10T18:09:02.506Z,4.00
2018-12-10T18:11:30.870Z,4.00
2018-12-10T18:13:59.281Z,4.10
2018-12-10T18:16:27.650Z,4.10
2018-12-10T18:18:57.125Z,4.10
2018-12-10T18:21:25.650Z,4.10
2018-12-10T18:23:54.037Z,4.10
2018-12-10T18:26:22.714Z,4.10
2018-12-10T18:28:51.178Z,4.10
2018-12-10T18:31:19.561Z,4.10
2018-12-10T18:33:47.981Z,4.10
2018-12-10T18:36:16.457Z,4.10
2018-12-10T18:38:44.943Z,4.10
2018-12-10T18:41:13.560Z,4.10
2018-12-10T18:43:42.012Z,4.00
2018-12-10T18:46:10.451Z,4.00
2018-12-10T18:48:39.975Z,4.00
2018-12-10T18:51:08.405Z,4.00
2018-12-10T18:53:36.803Z,3.90
2018-12-10T18:56:05.272Z,3.90
2018-12-10T18:58:33.771Z,3.90
2018-12-10T19:01:02.235Z,3.90
2018-12-10T19:03:30.603Z,3.90
2018-12-10T19:05:59.143Z,3.90
2018-12-10T19:08:27.702Z,3.90
2018-12-10T19:10:56.170Z,3.90
2018-12-10T19:13:24.606Z,3.90
2018-12-10T19:15:53.322Z,3.90
2018-12-10T19:18:21.776Z,3.90
2018-12-10T19:20:50.226Z,4.00
2018-12-10T19:23:18.646Z,4.00
2018-12-10T19:25:47.095Z,4.00
2018-12-10T19:28:15.521Z,4.00
2018-12-10T19:30:44.007Z,4.00
2018-12-10T19:33:12.503Z,4.00
2018-12-10T19:35:40.920Z,3.90
2018-12-10T19:38:09.762Z,3.80
2018-12-10T19:40:38.221Z,3.80
2018-12-10T19:43:06.692Z,3.80
2018-12-10T19:45:35.460Z,3.70
2018-12-10T19:48:03.931Z,3.70
2018-12-10T19:50:32.363Z,3.80
2018-12-10T19:53:00.963Z,3.80
2018-12-10T19:55:29.615Z,3.80
2018-12-10T19:57:58.327Z,3.70
2018-12-10T20:00:27.953Z,3.70
2018-12-10T20:02:56.450Z,3.70
2018-12-10T20:05:29.148Z,3.70
2018-12-10T20:07:58.352Z,3.70
2018-12-10T20:10:28.777Z,3.70
2018-12-10T20:12:58.285Z,3.70
2018-12-10T20:15:26.779Z,3.60
2018-12-10T20:17:55.331Z,3.60
2018-12-10T20:20:24.536Z,3.60
2018-12-10T20:22:52.927Z,3.50
2018-12-10T20:25:21.327Z,3.50
2018-12-10T20:27:50.707Z,3.50
2018-12-10T20:30:20.242Z,3.50
2018-12-10T20:32:48.790Z,3.50
2018-12-10T20:35:17.250Z,3.60
2018-12-10T20:37:45.627Z,3.60
2018-12-10T20:40:15.145Z,3.60
2018-12-10T20:42:44.602Z,3.60
2018-12-10T20:45:16.845Z,3.60
2018-12-10T20:47:46.340Z,3.60
2018-12-10T20:50:14.910Z,3.60
2018-12-10T20:52:46.366Z,3.60
2018-12-10T20:55:14.907Z,3.50
2018-12-10T20:57:44.431Z,3.50
2018-12-10T21:00:13.913Z,3.50
2018-12-10T21:02:43.439Z,3.50
2018-12-10T21:05:11.964Z,3.40
2018-12-10T21:07:42.542Z,3.40
2018-12-10T21:10:15.082Z,3.30
2018-12-10T21:12:43.523Z,3.30
2018-12-10T21:15:14.110Z,3.30
2018-12-10T21:17:44.624Z,3.40
2018-12-10T21:20:13.101Z,3.40
2018-12-10T21:22:41.651Z,3.50
2018-12-10T21:25:11.060Z,3.50
2018-12-10T21:27:40.444Z,3.50
2018-12-10T21:30:13.038Z,3.50
2018-12-10T21:32:43.470Z,3.60
2018-12-10T21:35:16.723Z,3.60
2018-12-10T21:37:45.228Z,3.60
2018-12-10T21:40:14.828Z,3.60
2018-12-10T21:42:47.138Z,3.60
2018-12-10T21:45:15.779Z,3.70
2018-12-10T21:47:48.158Z,3.60
2018-12-10T21:50:16.960Z,3.60
2018-12-10T21:52:45.475Z,3.70
2018-12-10T21:55:16.882Z,3.70
2018-12-10T21:57:46.469Z,3.60
2018-12-10T22:00:14.913Z,3.70
2018-12-10T22:02:43.366Z,3.70
2018-12-10T22:05:11.881Z,3.70
2018-12-10T22:07:40.291Z,3.70
2018-12-10T22:10:08.738Z,3.70
2018-12-10T22:12:39.235Z,3.70
2018-12-10T22:15:07.711Z,3.70
2018-12-10T22:17:36.067Z,3.60
2018-12-10T22:20:04.975Z,3.60
2018-12-10T22:22:33.395Z,3.60
2018-12-10T22:25:02.655Z,3.60
2018-12-10T22:27:31.266Z,3.60
2018-12-10T22:29:59.661Z,3.60
2018-12-10T22:32:28.073Z,3.60
2018-12-10T22:34:56.426Z,3.60
2018-12-10T22:37:24.822Z,3.60
2018-12-10T22:39:53.196Z,3.60
2018-12-10T22:42:21.589Z,3.60
2018-12-10T22:44:49.925Z,3.50
2018-12-10T22:47:18.289Z,3.60
2018-12-10T22:49:46.591Z,3.60
2018-12-10T22:52:15.012Z,3.60
2018-12-10T22:54:43.428Z,3.60
2018-12-10T22:57:11.874Z,3.70
2018-12-10T22:59:40.217Z,3.70
2018-12-10T23:02:08.971Z,3.70
2018-12-10T23:04:37.402Z,3.70
2018-12-10T23:07:05.817Z,3.60
2018-12-10T23:09:34.322Z,3.60
2018-12-10T23:12:02.650Z,3.50
2018-12-10T23:14:32.076Z,3.50
2018-12-10T23:17:00.356Z,3.50
2018-12-10T23:19:28.730Z,3.50
2018-12-10T23:21:57.132Z,3.50
2018-12-10T23:24:25.468Z,3.50
2018-12-10T23:26:53.939Z,3.50
2018-12-10T23:29:22.344Z,3.50
2018-12-10T23:31:50.834Z,3.50
2018-12-10T23:34:19.176Z,3.50
2018-12-10T23:36:47.790Z,3.50
2018-12-10T23:39:16.241Z,3.50
2018-12-10T23:41:44.643Z,3.40
2018-12-10T23:44:17.318Z,3.40
2018-12-10T23:46:45.746Z,3.40
2018-12-10T23:49:14.130Z,3.30
2018-12-10T23:51:42.526Z,3.40
2018-12-10T23:54:10.931Z,3.40
2018-12-10T23:56:39.311Z,3.50
2018-12-10T23:59:07.732Z,3.50
